Time;durP1;ratioP1;P1;durP2;ratioP2;P2;SDS_P1;SDS_P2;PMS_P1;PMS_P2;Temp;Humidity;BMP_temperature;BMP_pressure;BME280_temperature;BME280_humidity;BME280_pressure;Samples;Min_cycle;Max_cycle;Signal;HPM_P1;HPM_P2
2022/02/11 00:08:34;;;;;;;7.95;2.20;;;2.20;99.90;;;;;;5050234;28;20043;-54
2022/02/11 00:11:00;;;;;;;12.30;2.35;;;2.20;99.90;;;;;;5049753;28;20025;-57
2022/02/11 00:13:27;;;;;;;11.55;2.30;;;2.10;99.90;;;;;;5049554;28;20056;-54
2022/02/11 00:15:54;;;;;;;11.45;2.10;;;2.10;99.90;;;;;;5049724;28;20021;-51
2022/02/11 00:18:20;;;;;;;10.63;2.40;;;2.10;99.90;;;;;;5049464;28;20475;-53
2022/02/11 00:20:51;;;;;;;8.07;2.13;;;2.10;99.90;;;;;;5042258;28;20105;-52
2022/02/11 00:23:19;;;;;;;7.25;2.72;;;2.10;99.90;;;;;;5030019;28;20056;-56
2022/02/11 00:25:57;;;;;;;6.03;2.00;;;2.10;99.90;;;;;;5033640;28;20483;-55
2022/02/11 00:33:25;;;;;;;12.85;2.53;;;2.00;99.90;;;;;;5048939;28;20021;-52
2022/02/11 00:35:56;;;;;;;12.23;2.88;;;2.00;99.90;;;;;;5047783;28;20053;-53
2022/02/11 00:38:39;;;;;;;6.07;2.45;;;2.00;99.90;;;;;;5049329;28;20033;-57
2022/02/11 00:44:48;;;;;;;12.40;2.63;;;2.00;99.90;;;;;;5048976;28;20095;-53
2022/02/11 01:03:18;;;;;;;9.85;2.60;;;1.80;99.90;;;;;;5049374;28;20083;-54
2022/02/11 01:05:43;;;;;;;11.15;2.45;;;1.80;99.90;;;;;;5029945;28;20132;-56
2022/02/11 01:08:09;;;;;;;11.00;2.15;;;1.80;99.90;;;;;;5041264;28;20035;-56
2022/02/11 01:10:35;;;;;;;10.05;2.08;;;1.70;99.90;;;;;;5045190;28;20536;-56
2022/02/11 01:13:00;;;;;;;6.75;2.33;;;1.70;99.90;;;;;;5030516;28;20120;-53
2022/02/11 01:15:28;;;;;;;11.73;2.28;;;1.70;99.90;;;;;;5048871;28;20021;-53
2022/02/11 01:17:58;;;;;;;5.50;2.25;;;1.70;99.90;;;;;;5049163;28;20070;-52
2022/02/11 01:24:08;;;;;;;10.55;2.33;;;1.70;99.90;;;;;;5045103;28;20567;-56
2022/02/11 01:33:44;;;;;;;7.80;2.83;;;1.60;99.90;;;;;;5052258;28;20124;-56
2022/02/11 01:42:42;;;;;;;6.25;2.22;;;1.60;99.90;;;;;;5053318;28;20444;-57
2022/02/11 01:52:11;;;;;;;7.40;2.08;;;1.60;99.90;;;;;;5052063;28;20522;-56
2022/02/11 02:00:37;;;;;;;10.30;2.45;;;1.80;99.90;;;;;;5031063;28;20036;-56
2022/02/11 02:13:40;;;;;;;10.13;2.45;;;1.90;99.90;;;;;;5052303;28;20037;-52
2022/02/11 02:16:58;;;;;;;7.38;1.80;;;1.90;99.90;;;;;;5052313;28;20472;-52
2022/02/11 02:37:39;;;;;;;9.13;2.10;;;1.90;99.90;;;;;;5052299;28;20025;-54
2022/02/11 03:02:11;;;;;;;8.38;2.50;;;1.70;99.90;;;;;;5049131;28;20109;-53
2022/02/11 04:56:03;;;;;;;7.60;3.78;;;0.70;99.90;;;;;;4990140;28;20052;-54
2022/02/11 05:01:13;;;;;;;11.32;5.00;;;0.70;99.90;;;;;;4995971;28;20037;-54
2022/02/11 05:03:39;;;;;;;7.38;3.47;;;0.70;99.90;;;;;;4994624;28;20030;-52
2022/02/11 05:06:04;;;;;;;8.52;3.58;;;0.70;99.90;;;;;;5035889;28;20688;-53
2022/02/11 05:08:30;;;;;;;10.00;3.80;;;0.60;99.90;;;;;;5063130;28;20028;-51
2022/02/11 05:10:57;;;;;;;9.57;3.53;;;0.60;99.90;;;;;;5049443;28;20033;-52
2022/02/11 05:13:24;;;;;;;13.02;4.18;;;0.60;99.90;;;;;;5049932;28;20079;-55
2022/02/11 05:15:50;;;;;;;14.98;3.95;;;0.60;99.90;;;;;;5049598;28;20024;-52
2022/02/11 05:18:17;;;;;;;10.10;3.97;;;0.60;99.90;;;;;;5050952;28;20033;-53
2022/02/11 05:20:43;;;;;;;9.82;3.70;;;0.50;99.90;;;;;;5049406;28;20066;-54
2022/02/11 05:23:11;;;;;;;7.03;4.03;;;0.60;99.90;;;;;;5050068;28;20550;-53
2022/02/11 05:25:37;;;;;;;8.73;3.10;;;0.60;99.90;;;;;;5050506;28;20411;-49
2022/02/11 05:28:04;;;;;;;11.32;4.38;;;0.60;99.90;;;;;;5067874;28;20111;-51
2022/02/11 05:30:30;;;;;;;9.50;3.67;;;0.60;99.90;;;;;;5068759;28;20071;-51
2022/02/11 05:32:56;;;;;;;9.02;3.53;;;0.60;99.90;;;;;;5032757;28;20029;-52
2022/02/11 05:35:23;;;;;;;6.72;3.90;;;0.60;99.90;;;;;;5052618;28;20024;-54
2022/02/11 05:37:49;;;;;;;12.43;3.72;;;0.60;99.90;;;;;;5069077;28;20024;-52
2022/02/11 05:40:16;;;;;;;9.30;4.20;;;0.60;99.90;;;;;;5068791;28;20025;-52
2022/02/11 05:42:41;;;;;;;8.23;3.55;;;0.60;99.90;;;;;;5066816;28;20028;-53
2022/02/11 05:45:07;;;;;;;9.77;3.70;;;0.60;99.90;;;;;;5065153;28;20028;-49
2022/02/11 05:47:33;;;;;;;9.45;3.90;;;0.60;99.90;;;;;;5050085;28;20108;-52
2022/02/11 05:50:02;;;;;;;7.80;3.72;;;0.60;99.90;;;;;;5064176;28;20119;-55
2022/02/11 05:52:33;;;;;;;10.27;4.47;;;0.60;99.90;;;;;;5066547;28;20020;-49
2022/02/11 05:54:58;;;;;;;9.45;3.80;;;0.60;99.90;;;;;;5066786;28;20148;-51
2022/02/11 05:57:24;;;;;;;12.48;5.68;;;0.60;99.90;;;;;;5068920;28;20615;-52
2022/02/11 05:59:49;;;;;;;9.30;4.75;;;0.60;99.90;;;;;;5068536;28;20031;-51
2022/02/11 06:02:16;;;;;;;15.90;4.47;;;0.60;99.90;;;;;;5054925;28;20028;-55
2022/02/11 06:04:42;;;;;;;9.13;4.47;;;0.60;99.90;;;;;;5048997;28;20554;-52
2022/02/11 06:07:07;;;;;;;10.77;4.25;;;0.70;99.90;;;;;;5056796;28;20025;-51
2022/02/11 06:09:33;;;;;;;10.02;4.15;;;0.70;99.90;;;;;;5064553;28;20554;-52
2022/02/11 06:11:59;;;;;;;8.73;4.03;;;0.70;99.90;;;;;;5048718;28;20105;-51
2022/02/11 06:14:24;;;;;;;12.55;5.05;;;0.70;99.90;;;;;;5049330;28;20040;-53
2022/02/11 06:16:50;;;;;;;9.38;5.28;;;0.70;99.90;;;;;;5053589;28;20162;-52
2022/02/11 06:19:16;;;;;;;12.07;4.45;;;0.70;99.90;;;;;;5072773;28;20032;-55
2022/02/11 06:21:41;;;;;;;15.00;4.70;;;0.80;99.90;;;;;;5060379;28;20506;-52
2022/02/11 06:24:07;;;;;;;16.45;5.70;;;0.80;99.90;;;;;;5061548;28;20037;-52
2022/02/11 06:26:33;;;;;;;12.90;4.57;;;0.80;99.90;;;;;;5069899;28;20547;-52
2022/02/11 06:28:58;;;;;;;11.75;5.88;;;0.80;99.90;;;;;;5070574;28;20028;-51
2022/02/11 06:31:24;;;;;;;8.80;5.57;;;0.90;99.90;;;;;;5072722;28;20033;-51
2022/02/11 06:33:51;;;;;;;13.73;6.03;;;0.90;99.90;;;;;;5070836;28;20031;-51
2022/02/11 06:36:17;;;;;;;9.35;4.55;;;1.00;99.90;;;;;;5063293;28;20071;-52
2022/02/11 06:38:42;;;;;;;15.65;5.25;;;1.00;99.90;;;;;;5052066;28;20594;-51
2022/02/11 06:41:08;;;;;;;10.90;4.80;;;1.00;99.90;;;;;;5052249;28;20512;-55
2022/02/11 06:43:34;;;;;;;10.23;5.65;;;1.00;99.90;;;;;;5051417;28;20037;-51
2022/02/11 06:46:01;;;;;;;7.90;4.82;;;1.10;99.90;;;;;;5051660;28;20484;-51
2022/02/11 06:48:27;;;;;;;9.00;4.72;;;1.10;99.90;;;;;;5066931;28;20048;-53
2022/02/11 06:50:53;;;;;;;10.88;5.57;;;1.10;99.90;;;;;;5071871;28;20037;-51
2022/02/11 06:53:18;;;;;;;16.10;4.78;;;1.10;99.90;;;;;;5069478;28;20527;-53
2022/02/11 06:55:44;;;;;;;16.10;5.75;;;1.20;99.90;;;;;;5071089;28;20024;-54
2022/02/11 06:58:10;;;;;;;10.73;5.50;;;1.20;99.90;;;;;;5070230;28;20507;-55
2022/02/11 07:00:40;;;;;;;11.60;5.72;;;1.20;99.90;;;;;;5070541;28;20036;-51
2022/02/11 07:03:05;;;;;;;13.82;5.75;;;1.20;99.90;;;;;;5049628;28;20074;-51
2022/02/11 07:05:34;;;;;;;13.02;5.97;;;1.30;99.90;;;;;;5050512;28;20037;-55
2022/02/11 07:08:00;;;;;;;15.90;7.22;;;1.40;99.90;;;;;;5050641;28;20029;-51
2022/02/11 07:10:25;;;;;;;13.80;6.40;;;1.40;99.90;;;;;;5050585;28;20463;-53
2022/02/11 07:12:51;;;;;;;12.77;6.43;;;1.50;99.90;;;;;;5062670;28;20403;-52
2022/02/11 07:15:17;;;;;;;12.18;6.25;;;1.50;99.90;;;;;;5070373;28;20028;-52
2022/02/11 07:17:42;;;;;;;10.63;6.15;;;1.50;99.90;;;;;;5070633;28;20024;-53
2022/02/11 07:20:08;;;;;;;13.00;6.78;;;1.50;99.90;;;;;;5052358;28;20025;-52
2022/02/11 07:22:34;;;;;;;12.88;6.47;;;1.60;99.90;;;;;;5070398;28;20480;-52
2022/02/11 07:25:14;;;;;;;11.43;5.90;;;1.60;99.90;;;;;;5070057;28;20040;-52
2022/02/11 07:27:40;;;;;;;12.23;6.25;;;1.60;99.90;;;;;;5069252;28;20032;-52
2022/02/11 07:30:07;;;;;;;12.63;6.70;;;1.60;99.90;;;;;;5069667;28;20059;-52
2022/02/11 07:32:33;;;;;;;10.30;6.07;;;1.60;99.90;;;;;;5052378;28;20028;-54
2022/02/11 07:35:05;;;;;;;12.32;6.25;;;1.60;99.90;;;;;;5070500;28;20052;-54
2022/02/11 07:37:31;;;;;;;15.50;6.47;;;1.70;99.90;;;;;;5052417;28;20570;-55
2022/02/11 07:39:58;;;;;;;9.93;5.55;;;1.70;99.90;;;;;;5070248;28;20032;-53
2022/02/11 07:42:25;;;;;;;9.45;5.20;;;1.70;99.90;;;;;;5065281;28;20128;-51
2022/02/11 07:44:52;;;;;;;14.00;6.82;;;1.70;99.90;;;;;;5053015;28;20400;-52
2022/02/11 07:47:18;;;;;;;11.07;5.82;;;1.70;99.90;;;;;;5065895;28;20611;-51
2022/02/11 07:49:44;;;;;;;15.48;6.18;;;1.70;99.90;;;;;;5051514;28;20104;-54
2022/02/11 07:52:10;;;;;;;10.13;5.78;;;1.80;99.90;;;;;;5069499;28;20414;-53
2022/02/11 07:54:36;;;;;;;11.20;5.57;;;1.80;99.90;;;;;;5032508;28;1052862;-51
2022/02/11 07:57:01;;;;;;;11.13;5.38;;;1.80;99.90;;;;;;5052160;28;20067;-55
2022/02/11 07:59:27;;;;;;;8.55;5.82;;;1.80;99.90;;;;;;5052604;28;20086;-51
2022/02/11 08:01:52;;;;;;;8.38;5.50;;;1.80;99.90;;;;;;5065858;28;20103;-53
2022/02/11 08:04:18;;;;;;;11.30;5.13;;;1.80;99.90;;;;;;5051295;28;20037;-52
2022/02/11 08:06:43;;;;;;;8.88;5.55;;;1.80;99.90;;;;;;5050680;28;20033;-52
2022/02/11 08:09:09;;;;;;;9.68;5.57;;;1.90;99.90;;;;;;5050541;28;20025;-52
2022/02/11 08:11:34;;;;;;;9.30;5.50;;;1.90;99.90;;;;;;5050811;28;20033;-53
2022/02/11 08:14:00;;;;;;;7.03;5.05;;;1.90;99.90;;;;;;5050039;28;20036;-55
2022/02/11 08:16:26;;;;;;;9.10;4.53;;;2.00;99.90;;;;;;5050584;28;20074;-53
2022/02/11 08:18:51;;;;;;;9.15;4.80;;;2.00;99.90;;;;;;5050208;28;20029;-52
2022/02/11 08:21:17;;;;;;;9.45;4.47;;;2.10;99.90;;;;;;5050388;28;20101;-52
2022/02/11 08:23:44;;;;;;;6.97;4.15;;;2.10;99.90;;;;;;5061528;28;20119;-54
2022/02/11 08:26:10;;;;;;;8.02;5.05;;;2.20;99.90;;;;;;5061663;28;20033;-55
2022/02/11 08:28:36;;;;;;;5.47;3.55;;;2.30;99.90;;;;;;5050136;28;20569;-53
2022/02/11 08:31:02;;;;;;;5.32;3.47;;;2.30;99.90;;;;;;5053737;28;20028;-51
2022/02/11 08:33:28;;;;;;;5.80;3.33;;;2.40;99.90;;;;;;5051115;28;20045;-52
2022/02/11 08:35:55;;;;;;;12.82;6.28;;;2.40;99.90;;;;;;5049099;28;20453;-54
2022/02/11 08:38:23;;;;;;;10.30;5.30;;;2.50;99.90;;;;;;5040763;28;20535;-52
2022/02/11 08:40:49;;;;;;;12.88;5.68;;;2.50;99.90;;;;;;5036714;28;20049;-54
2022/02/11 08:43:15;;;;;;;8.00;5.15;;;2.50;99.90;;;;;;5044414;28;20056;-54
2022/02/11 08:45:41;;;;;;;12.70;6.32;;;2.60;99.90;;;;;;5055901;28;20077;-52
2022/02/11 08:48:09;;;;;;;12.93;6.75;;;2.60;99.90;;;;;;5070200;28;20039;-53
2022/02/11 08:50:36;;;;;;;9.90;5.43;;;2.60;99.90;;;;;;5069407;28;20103;-53
2022/02/11 08:53:04;;;;;;;12.98;6.70;;;2.60;99.90;;;;;;5069136;28;20032;-52
2022/02/11 08:55:29;;;;;;;12.55;5.93;;;2.60;99.90;;;;;;5092526;22;20076;-57
2022/02/11 08:57:59;;;;;;;12.20;6.10;;;2.60;99.90;;;;;;5068967;28;20103;-58
2022/02/11 09:00:28;;;;;;;13.18;6.88;;;2.50;99.90;;;;;;5069385;28;20017;-57
2022/02/11 09:02:58;;;;;;;10.05;6.28;;;2.60;99.90;;;;;;5068609;28;20024;-57
2022/02/11 09:05:25;;;;;;;9.82;6.88;;;2.50;99.90;;;;;;5069059;28;20048;-56
2022/02/11 09:08:00;;;;;;;12.98;6.40;;;2.60;99.90;;;;;;5051348;28;20507;-57
2022/02/11 09:10:28;;;;;;;11.65;6.22;;;2.60;99.90;;;;;;5056854;28;20037;-60
2022/02/11 09:12:55;;;;;;;11.75;6.80;;;2.60;99.90;;;;;;5049670;28;20090;-57
2022/02/11 09:15:22;;;;;;;15.05;7.45;;;2.60;99.90;;;;;;5059421;28;20024;-57
2022/02/11 09:17:49;;;;;;;12.68;7.00;;;2.60;99.90;;;;;;5069119;28;20074;-57
2022/02/11 09:20:15;;;;;;;12.40;6.60;;;2.60;99.90;;;;;;5037556;28;20873;-55
2022/02/11 09:22:41;;;;;;;11.70;6.53;;;2.60;99.90;;;;;;5046546;28;20032;-55
2022/02/11 09:25:07;;;;;;;16.27;6.60;;;2.60;99.90;;;;;;5050622;28;20042;-56
2022/02/11 09:27:33;;;;;;;10.45;6.47;;;2.60;99.90;;;;;;5047980;28;20032;-56
2022/02/11 09:29:58;;;;;;;11.32;6.50;;;2.70;99.90;;;;;;5048286;28;20025;-56
2022/02/11 09:32:24;;;;;;;12.93;6.57;;;2.70;99.90;;;;;;5047906;28;20036;-55
2022/02/11 09:34:49;;;;;;;14.23;6.78;;;2.70;99.90;;;;;;5059575;28;20025;-54
2022/02/11 09:37:15;;;;;;;13.23;6.95;;;2.80;99.90;;;;;;5066613;28;20155;-55
2022/02/11 09:39:41;;;;;;;9.80;6.55;;;2.80;99.90;;;;;;5067957;28;20020;-55
2022/02/11 09:42:06;;;;;;;10.70;6.88;;;2.80;99.90;;;;;;5065254;28;20103;-57
2022/02/11 09:44:32;;;;;;;18.98;7.45;;;2.80;99.90;;;;;;5049241;28;20481;-55
2022/02/11 09:46:59;;;;;;;18.98;7.68;;;2.80;99.90;;;;;;5062652;28;20098;-53
2022/02/11 09:49:25;;;;;;;16.65;8.35;;;2.80;99.90;;;;;;5069058;28;20537;-57
2022/02/11 09:51:53;;;;;;;10.65;6.10;;;2.80;99.90;;;;;;5044023;28;20033;-57
2022/02/11 09:54:21;;;;;;;14.82;7.28;;;2.90;99.90;;;;;;5057754;28;20048;-57
2022/02/11 09:56:50;;;;;;;14.50;7.43;;;2.90;99.90;;;;;;5051745;28;20025;-53
2022/02/11 09:59:17;;;;;;;19.45;7.50;;;2.90;99.90;;;;;;5067931;28;20035;-54
2022/02/11 10:01:44;;;;;;;17.38;7.18;;;2.90;99.90;;;;;;5063032;28;20100;-57
2022/02/11 10:04:25;;;;;;;9.77;6.22;;;3.00;99.90;;;;;;5051617;28;20039;-55
2022/02/11 10:06:52;;;;;;;14.95;7.22;;;3.00;99.90;;;;;;5033665;28;20032;-57
2022/02/11 10:09:20;;;;;;;13.05;7.25;;;3.00;99.90;;;;;;5052848;28;20101;-56
2022/02/11 10:11:46;;;;;;;14.57;7.47;;;3.00;99.90;;;;;;5041256;28;20075;-55
2022/02/11 10:14:35;;;;;;;13.90;6.95;;;3.10;99.90;;;;;;5051240;28;20021;-54
2022/02/11 10:17:05;;;;;;;12.68;7.53;;;3.10;99.90;;;;;;5047986;28;20036;-53
2022/02/11 10:19:50;;;;;;;14.65;7.20;;;3.20;99.90;;;;;;5033384;28;20028;-52
2022/02/11 10:22:21;;;;;;;12.52;6.78;;;3.20;99.90;;;;;;5063201;28;20063;-53
2022/02/11 10:24:48;;;;;;;13.57;6.55;;;3.30;99.90;;;;;;5048922;28;20055;-55
2022/02/11 10:27:28;;;;;;;11.05;6.20;;;3.40;99.90;;;;;;5056533;28;20021;-57
2022/02/11 10:29:58;;;;;;;15.52;7.43;;;3.50;99.90;;;;;;5049994;28;20021;-56
2022/02/11 10:32:41;;;;;;;9.68;6.30;;;3.70;99.90;;;;;;5053614;28;20029;-51
2022/02/11 10:35:11;;;;;;;15.57;5.35;;;4.00;99.90;;;;;;5051964;28;20532;-55
2022/02/11 10:37:57;;;;;;;9.68;6.07;;;4.00;99.90;;;;;;5067682;28;20047;-56
2022/02/11 10:40:30;;;;;;;10.48;6.07;;;4.00;99.90;;;;;;5070319;28;20124;-53
2022/02/11 10:42:56;;;;;;;10.20;5.80;;;4.00;99.90;;;;;;5072095;28;20029;-50
2022/02/11 10:45:37;;;;;;;9.27;5.60;;;4.10;99.90;;;;;;5070280;28;20119;-53
2022/02/11 10:48:16;;;;;;;9.15;5.05;;;4.10;99.90;;;;;;5071950;28;20095;-53
2022/02/11 10:50:55;;;;;;;6.80;5.25;;;4.10;99.90;;;;;;5071803;28;20024;-53
2022/02/11 10:53:29;;;;;;;7.35;4.95;;;4.10;99.90;;;;;;5071701;28;20111;-55
2022/02/11 10:55:57;;;;;;;4.93;4.18;;;4.10;99.90;;;;;;5054477;28;20035;-52
2022/02/11 10:58:24;;;;;;;4.60;4.03;;;4.20;99.90;;;;;;5051678;28;20051;-54
2022/02/11 11:00:50;;;;;;;8.73;3.97;;;4.20;99.90;;;;;;5032731;28;20033;-52
2022/02/11 11:03:17;;;;;;;5.00;4.28;;;4.20;99.90;;;;;;5051242;28;20103;-50
2022/02/11 11:05:44;;;;;;;6.13;4.07;;;4.30;99.90;;;;;;5053019;28;20029;-54
2022/02/11 11:08:13;;;;;;;5.25;4.22;;;4.30;99.90;;;;;;5052022;28;20028;-57
2022/02/11 11:10:42;;;;;;;7.72;4.63;;;4.40;99.90;;;;;;5051616;28;20033;-53
2022/02/11 11:13:11;;;;;;;8.55;4.82;;;4.50;99.90;;;;;;5065251;28;20036;-54
2022/02/11 11:15:37;;;;;;;6.72;4.38;;;4.50;99.90;;;;;;5061464;28;20060;-55
2022/02/11 11:18:07;;;;;;;5.13;4.63;;;4.50;99.90;;;;;;5048510;28;20032;-56
2022/02/11 11:20:34;;;;;;;8.90;4.93;;;4.50;99.90;;;;;;5064052;28;20027;-54
2022/02/11 11:23:26;;;;;;;5.65;4.90;;;4.50;99.90;;;;;;5071092;28;20025;-55
2022/02/11 11:26:03;;;;;;;8.20;5.03;;;4.40;99.90;;;;;;5069583;28;20025;-57
2022/02/11 11:28:49;;;;;;;9.80;5.28;;;4.40;99.90;;;;;;5068191;28;20433;-55
2022/02/11 11:31:17;;;;;;;5.80;5.07;;;4.30;99.90;;;;;;5031175;28;20029;-55
2022/02/11 11:33:44;;;;;;;11.10;5.70;;;4.40;99.90;;;;;;5039402;28;20035;-56
2022/02/11 11:36:12;;;;;;;12.43;4.63;;;4.60;99.90;;;;;;5071069;28;20025;-54
2022/02/11 11:38:55;;;;;;;6.57;5.07;;;4.70;99.90;;;;;;5069377;28;20021;-51
2022/02/11 11:41:26;;;;;;;7.28;4.93;;;4.70;99.90;;;;;;5071191;28;20073;-51
2022/02/11 11:43:57;;;;;;;9.40;4.45;;;4.80;99.90;;;;;;5052709;28;20680;-52
2022/02/11 11:46:30;;;;;;;9.85;5.00;;;4.80;99.90;;;;;;5033063;28;20045;-54
2022/02/11 11:49:12;;;;;;;8.73;4.15;;;4.90;99.90;;;;;;5032910;28;20021;-56
2022/02/11 11:51:38;;;;;;;7.95;5.30;;;5.00;99.90;;;;;;5051201;28;20160;-56
2022/02/11 11:54:15;;;;;;;8.05;4.45;;;5.10;99.90;;;;;;5032142;28;20120;-55
2022/02/11 11:56:43;;;;;;;5.72;4.60;;;5.10;99.90;;;;;;5032826;28;20108;-52
2022/02/11 11:59:20;;;;;;;8.02;4.93;;;5.20;99.90;;;;;;5050454;28;20028;-53
2022/02/11 12:01:54;;;;;;;6.05;4.80;;;5.30;99.90;;;;;;5050800;28;20017;-55
2022/02/11 12:04:26;;;;;;;6.72;4.85;;;5.40;99.90;;;;;;5050273;28;20025;-50
2022/02/11 12:06:57;;;;;;;9.90;4.35;;;5.40;99.90;;;;;;5050581;28;20021;-53
2022/02/11 12:09:24;;;;;;;9.10;4.65;;;5.40;99.90;;;;;;5050572;28;20028;-55
2022/02/11 12:11:57;;;;;;;9.27;5.10;;;5.50;99.90;;;;;;5050467;28;20119;-55
2022/02/11 12:14:25;;;;;;;7.45;4.50;;;5.50;99.90;;;;;;5050000;28;20052;-55
2022/02/11 12:16:52;;;;;;;9.13;5.07;;;5.40;99.90;;;;;;5050195;28;20013;-57
2022/02/11 12:19:17;;;;;;;9.27;4.63;;;5.50;99.90;;;;;;5050456;28;20074;-53
2022/02/11 12:21:43;;;;;;;10.55;4.43;;;5.50;99.90;;;;;;5050396;28;20029;-56
2022/02/11 12:29:38;;;;;;;5.70;4.55;;;5.60;99.90;;;;;;5050521;28;20036;-52
2022/02/11 12:32:04;;;;;;;10.98;5.03;;;5.60;99.90;;;;;;5049629;28;20025;-55
2022/02/11 12:34:30;;;;;;;6.95;4.35;;;5.70;99.90;;;;;;5049978;28;20040;-55
2022/02/11 12:37:06;;;;;;;8.48;5.00;;;5.70;99.90;;;;;;5052325;28;20059;-58
2022/02/11 12:39:32;;;;;;;16.98;5.18;;;5.70;99.90;;;;;;5029969;28;20047;-53
2022/02/11 12:41:58;;;;;;;9.38;4.78;;;5.70;99.90;;;;;;5051513;28;20543;-58
2022/02/11 12:44:28;;;;;;;8.55;3.70;;;5.70;99.90;;;;;;5049502;28;20048;-55
2022/02/11 12:46:56;;;;;;;6.72;4.00;;;5.60;99.90;;;;;;5031821;28;20029;-55
2022/02/11 12:49:24;;;;;;;4.80;3.80;;;5.50;99.90;;;;;;5050153;28;20181;-57
2022/02/11 12:51:55;;;;;;;10.82;3.88;;;5.30;99.90;;;;;;5049335;28;20040;-56
2022/02/11 12:54:21;;;;;;;4.25;2.70;;;5.10;99.90;;;;;;5048745;28;20020;-55
2022/02/11 12:56:49;;;;;;;3.80;2.40;;;4.90;99.90;;;;;;5050344;28;20051;-56
2022/02/11 12:59:15;;;;;;;3.45;2.28;;;4.60;99.90;;;;;;5048991;28;20062;-57
2022/02/11 13:01:40;;;;;;;1.55;1.40;;;4.30;99.90;;;;;;5066586;28;20067;-56
2022/02/11 13:04:06;;;;;;;1.40;1.30;;;4.00;99.90;;;;;;5069748;28;20411;-55
2022/02/11 13:06:35;;;;;;;1.92;0.98;;;3.80;99.90;;;;;;5053798;28;20041;-52
2022/02/11 13:09:05;;;;;;;1.88;1.05;;;3.70;99.90;;;;;;5049615;28;20034;-55
2022/02/11 13:11:31;;;;;;;1.90;1.38;;;3.60;99.90;;;;;;5064951;28;20107;-55
2022/02/11 13:14:01;;;;;;;2.08;0.90;;;3.60;99.90;;;;;;5051508;28;20373;-56
2022/02/11 13:16:27;;;;;;;3.63;0.90;;;3.50;99.90;;;;;;5054123;28;20033;-55
2022/02/11 13:18:53;;;;;;;1.58;0.93;;;3.30;99.90;;;;;;5049427;28;20032;-56
2022/02/11 13:21:21;;;;;;;4.18;1.40;;;3.20;99.90;;;;;;5054333;28;20036;-57
2022/02/11 13:23:50;;;;;;;3.28;1.13;;;3.20;99.90;;;;;;5064779;28;20028;-55
2022/02/11 13:26:16;;;;;;;2.72;0.75;;;3.20;99.90;;;;;;5063372;28;20079;-56
2022/02/11 13:28:50;;;;;;;2.55;0.77;;;3.30;99.90;;;;;;5056308;28;20075;-55
2022/02/11 13:31:18;;;;;;;1.98;0.98;;;3.40;99.90;;;;;;5048463;28;20027;-54
2022/02/11 13:33:43;;;;;;;2.60;0.82;;;3.40;99.90;;;;;;5059925;28;20033;-53
2022/02/11 13:36:12;;;;;;;3.47;1.15;;;3.40;99.90;;;;;;5061400;28;20048;-57
2022/02/11 13:38:47;;;;;;;5.22;1.20;;;3.50;99.90;;;;;;5071487;28;20024;-55
2022/02/11 13:41:15;;;;;;;2.47;1.20;;;3.50;99.90;;;;;;5033935;28;20025;-52
2022/02/11 13:44:01;;;;;;;1.38;0.70;;;3.70;99.90;;;;;;5027621;28;20052;-52
2022/02/11 13:46:31;;;;;;;4.85;1.30;;;3.80;99.90;;;;;;5056640;28;20025;-53
2022/02/11 13:49:01;;;;;;;4.55;1.33;;;3.90;99.90;;;;;;5073379;28;20830;-53
2022/02/11 13:51:27;;;;;;;2.65;1.35;;;3.90;99.90;;;;;;5060067;28;20488;-56
2022/02/11 13:53:53;;;;;;;1.63;0.85;;;3.90;99.90;;;;;;5052822;28;20040;-57
2022/02/11 13:56:36;;;;;;;5.30;1.98;;;4.00;99.90;;;;;;5066896;28;20028;-54
2022/02/11 13:59:06;;;;;;;4.68;1.40;;;4.00;99.90;;;;;;5072940;28;20480;-56
2022/02/11 14:01:33;;;;;;;5.18;1.73;;;4.00;99.90;;;;;;5071327;28;20032;-54
2022/02/11 14:04:04;;;;;;;2.97;1.20;;;4.00;99.90;;;;;;5072734;28;20039;-55
2022/02/11 14:06:38;;;;;;;2.15;1.20;;;4.00;99.90;;;;;;5057675;28;20032;-55
2022/02/11 14:09:08;;;;;;;6.30;1.35;;;4.10;99.90;;;;;;5054121;28;20036;-55
2022/02/11 14:11:39;;;;;;;4.28;1.10;;;4.10;99.90;;;;;;5053026;28;20033;-54
2022/02/11 14:14:13;;;;;;;5.80;1.10;;;4.10;99.90;;;;;;5052565;28;20029;-55
2022/02/11 14:16:39;;;;;;;2.88;1.20;;;4.10;99.90;;;;;;5038693;28;20112;-57
2022/02/11 14:19:04;;;;;;;4.28;1.15;;;4.10;99.90;;;;;;5052798;28;20116;-52
2022/02/11 14:21:30;;;;;;;2.72;1.30;;;4.10;99.90;;;;;;5034545;28;20448;-57
2022/02/11 14:23:56;;;;;;;2.58;1.17;;;4.10;99.90;;;;;;5052018;28;20028;-57
2022/02/11 14:26:21;;;;;;;2.03;0.85;;;4.20;99.90;;;;;;5053541;28;20021;-56
2022/02/11 14:28:47;;;;;;;2.67;1.00;;;4.10;99.90;;;;;;5052434;28;20025;-54
2022/02/11 14:31:12;;;;;;;0.93;0.55;;;4.20;99.90;;;;;;5055544;28;20039;-55
2022/02/11 14:33:38;;;;;;;2.58;1.05;;;4.20;99.90;;;;;;5071980;28;20024;-54
2022/02/11 14:36:04;;;;;;;1.70;0.88;;;4.20;99.90;;;;;;5070194;28;20025;-56
2022/02/11 14:38:30;;;;;;;2.17;1.00;;;4.20;99.90;;;;;;5072372;28;20028;-54
2022/02/11 14:43:40;;;;;;;1.50;0.70;;;4.30;99.90;;;;;;5064703;28;20467;-57
2022/02/11 14:46:05;;;;;;;3.67;1.35;;;4.30;99.90;;;;;;5071801;28;20097;-56
2022/02/11 14:48:31;;;;;;;1.52;0.90;;;4.20;99.90;;;;;;5072408;28;20021;-56
2022/02/11 14:50:56;;;;;;;3.47;0.98;;;4.30;99.90;;;;;;5072143;28;20029;-55
2022/02/11 14:53:22;;;;;;;4.97;1.23;;;4.30;99.90;;;;;;5071515;28;20170;-56
2022/02/11 14:55:48;;;;;;;5.15;1.70;;;4.30;99.90;;;;;;5070255;28;20032;-56
2022/02/11 14:58:14;;;;;;;5.18;1.17;;;4.30;99.90;;;;;;5071766;28;20032;-55
2022/02/11 15:00:39;;;;;;;3.80;1.30;;;4.30;99.90;;;;;;5065648;28;20591;-57
2022/02/11 15:03:05;;;;;;;1.08;0.85;;;4.20;99.90;;;;;;5051761;28;20032;-53
2022/02/11 15:05:31;;;;;;;6.57;1.50;;;4.20;99.90;;;;;;5051732;28;20029;-56
2022/02/11 15:07:56;;;;;;;1.23;0.73;;;4.20;99.90;;;;;;5052978;28;20023;-54
2022/02/11 15:10:24;;;;;;;3.40;0.77;;;4.20;99.90;;;;;;5034228;28;20451;-54
2022/02/11 15:12:49;;;;;;;5.07;1.13;;;4.20;99.90;;;;;;5071256;28;20510;-55
2022/02/11 15:15:15;;;;;;;4.95;1.70;;;4.20;99.90;;;;;;5071390;28;20025;-56
2022/02/11 15:17:41;;;;;;;2.55;0.88;;;4.10;99.90;;;;;;5052417;28;20029;-54
2022/02/11 15:20:07;;;;;;;0.80;0.73;;;4.10;99.90;;;;;;5033576;28;20103;-56
2022/02/11 15:22:33;;;;;;;3.78;1.23;;;4.10;99.90;;;;;;5051444;28;20566;-56
2022/02/11 15:24:58;;;;;;;5.22;1.65;;;4.10;99.90;;;;;;5051874;28;20029;-58
2022/02/11 15:27:24;;;;;;;3.58;1.20;;;4.10;99.90;;;;;;5052791;28;20093;-52
2022/02/11 15:29:49;;;;;;;3.65;1.15;;;4.10;99.90;;;;;;5051443;28;20502;-54
2022/02/11 15:32:16;;;;;;;3.92;1.00;;;4.00;99.90;;;;;;5051105;28;20040;-56
2022/02/11 15:34:44;;;;;;;5.85;1.10;;;4.00;99.90;;;;;;5053067;28;20513;-55
2022/02/11 15:37:10;;;;;;;2.38;1.10;;;4.00;99.90;;;;;;5067722;28;20391;-55
2022/02/11 15:39:35;;;;;;;3.00;0.80;;;3.90;99.90;;;;;;5069380;28;20027;-56
2022/02/11 15:42:02;;;;;;;2.55;0.88;;;3.90;99.90;;;;;;5070665;28;20021;-55
2022/02/11 15:44:28;;;;;;;2.10;0.82;;;3.90;99.90;;;;;;5069021;28;20032;-56
2022/02/11 15:46:53;;;;;;;3.50;0.80;;;3.90;99.90;;;;;;5068811;28;20039;-54
2022/02/11 15:49:19;;;;;;;2.88;1.02;;;3.80;99.90;;;;;;5064560;28;20043;-55
2022/02/11 15:51:44;;;;;;;3.13;0.82;;;3.80;99.90;;;;;;5070177;28;20047;-56
2022/02/11 15:54:10;;;;;;;3.80;0.90;;;3.80;99.90;;;;;;5057163;28;20052;-56
2022/02/11 15:56:36;;;;;;;8.95;0.80;;;3.80;99.90;;;;;;5050635;28;20550;-54
2022/02/11 15:59:01;;;;;;;2.83;0.57;;;3.70;99.90;;;;;;5035615;28;20524;-52
2022/02/11 16:01:27;;;;;;;1.80;0.85;;;3.60;99.90;;;;;;5050791;28;20021;-56
2022/02/11 16:03:52;;;;;;;2.85;0.70;;;3.60;99.90;;;;;;5063535;28;20496;-54
2022/02/11 16:06:18;;;;;;;3.30;1.15;;;3.60;99.90;;;;;;5068325;28;20385;-54
2022/02/11 16:08:44;;;;;;;2.38;0.80;;;3.60;99.90;;;;;;5058360;28;20064;-53
2022/02/11 16:11:09;;;;;;;3.55;1.20;;;3.50;99.90;;;;;;5049698;28;20111;-54
2022/02/11 16:13:35;;;;;;;8.52;1.45;;;3.50;99.90;;;;;;5056068;28;20067;-55
2022/02/11 16:16:01;;;;;;;3.90;1.05;;;3.50;99.90;;;;;;5055651;28;20021;-54
2022/02/11 16:18:26;;;;;;;2.92;0.85;;;3.40;99.90;;;;;;5049859;28;20441;-57
2022/02/11 16:20:54;;;;;;;4.30;0.80;;;3.30;99.90;;;;;;5049979;28;20121;-57
2022/02/11 16:23:23;;;;;;;3.03;1.05;;;3.30;99.90;;;;;;5050039;28;20450;-54
2022/02/11 16:25:49;;;;;;;3.65;1.67;;;3.20;99.90;;;;;;5032187;28;20568;-55
2022/02/11 16:28:17;;;;;;;4.38;1.38;;;3.20;99.90;;;;;;5049861;28;20025;-54
2022/02/11 16:30:44;;;;;;;2.78;1.42;;;3.10;99.90;;;;;;5058140;28;20404;-52
2022/02/11 16:33:10;;;;;;;5.05;0.98;;;3.10;99.90;;;;;;5069371;28;20032;-53
2022/02/11 16:35:39;;;;;;;5.55;1.77;;;3.10;99.90;;;;;;5062343;28;20106;-55
2022/02/11 16:38:06;;;;;;;5.35;1.40;;;3.10;99.90;;;;;;5032279;28;20021;-54
2022/02/11 16:40:32;;;;;;;6.18;2.08;;;3.00;99.90;;;;;;5055288;28;20032;-55
2022/02/11 16:42:57;;;;;;;3.58;1.40;;;2.90;99.90;;;;;;5066536;28;20037;-57
2022/02/11 16:45:23;;;;;;;4.55;1.52;;;2.80;99.90;;;;;;5049646;28;20480;-57
2022/02/11 16:47:49;;;;;;;6.82;1.25;;;2.70;99.90;;;;;;5032580;28;20163;-56
2022/02/11 16:50:15;;;;;;;8.35;1.08;;;2.70;99.90;;;;;;5069582;28;20040;-55
2022/02/11 16:52:41;;;;;;;3.67;1.73;;;2.60;99.90;;;;;;5068956;28;20028;-56